createdAt,value
2018-02-11T00:00:36.277Z,0
2018-02-11T00:01:36.289Z,0
2018-02-11T00:02:36.576Z,0
2018-02-11T00:03:36.317Z,0
2018-02-11T00:04:36.342Z,0
2018-02-11T00:05:36.343Z,0
2018-02-11T00:06:36.608Z,0
2018-02-11T00:07:36.115Z,0
2018-02-11T00:08:36.380Z,0
2018-02-11T00:09:51.314Z,0
2018-02-11T00:10:36.657Z,0
2018-02-11T00:11:36.502Z,0
2018-02-11T00:12:36.205Z,0
2018-02-11T00:13:36.703Z,0
2018-02-11T00:14:36.992Z,0
2018-02-11T00:15:36.722Z,0
2018-02-11T00:16:36.735Z,0
2018-02-11T00:17:36.765Z,0
2018-02-11T00:18:36.570Z,0
2018-02-11T00:19:36.019Z,0
2018-02-11T00:20:36.286Z,0
2018-02-11T00:21:36.043Z,0
2018-02-11T00:22:36.560Z,0
2018-02-11T00:23:36.824Z,0
2018-02-11T00:24:36.081Z,0
2018-02-11T00:25:36.852Z,0
2018-02-11T00:26:36.376Z,0
2018-02-11T00:27:36.630Z,0
2018-02-11T00:28:36.643Z,0
2018-02-11T00:29:36.499Z,0
2018-02-11T00:30:36.670Z,0
2018-02-11T00:31:36.681Z,0
2018-02-11T00:32:36.703Z,0
2018-02-11T00:33:36.461Z,0
2018-02-11T00:34:36.968Z,0
2018-02-11T00:35:37.236Z,0
2018-02-11T00:36:37.035Z,0
2018-02-11T00:37:37.014Z,0
2018-02-11T00:38:36.771Z,0
2018-02-11T00:39:37.281Z,0
2018-02-11T00:40:37.049Z,0
2018-02-11T00:41:36.558Z,0
2018-02-11T00:42:36.843Z,0
2018-02-11T00:43:37.329Z,0
2018-02-11T00:44:37.093Z,0
2018-02-11T00:45:36.871Z,0
2018-02-11T00:46:36.615Z,0
2018-02-11T00:47:36.895Z,0
2018-02-11T00:48:37.170Z,0
2018-02-11T00:49:37.156Z,0
2018-02-11T00:50:37.166Z,0
2018-02-11T00:51:36.946Z,0
2018-02-11T00:52:36.946Z,0
2018-02-11T00:53:36.962Z,0
2018-02-11T00:54:36.973Z,0
2018-02-11T00:55:37.481Z,0
2018-02-11T00:56:37.245Z,0
2018-02-11T00:57:37.002Z,0
2018-02-11T00:58:36.510Z,0
2018-02-11T00:59:37.028Z,0
2018-02-11T01:00:37.546Z,0
2018-02-11T01:01:37.312Z,0
2018-02-11T01:02:36.573Z,0
2018-02-11T01:03:37.084Z,0
2018-02-11T01:04:37.349Z,0
2018-02-11T01:05:37.360Z,0
2018-02-11T01:06:37.122Z,0
2018-02-11T01:07:37.137Z,0
2018-02-11T01:08:36.906Z,0
2018-02-11T01:09:36.912Z,0
2018-02-11T01:10:37.687Z,0
2018-02-11T01:11:36.942Z,0
2018-02-11T01:12:36.699Z,0
2018-02-11T01:13:37.023Z,0
2018-02-11T01:14:36.963Z,0
2018-02-11T01:15:37.255Z,0
2018-02-11T01:16:37.261Z,0
2018-02-11T01:17:37.263Z,0
2018-02-11T01:18:37.528Z,0
2018-02-11T01:19:37.309Z,0
2018-02-11T01:20:37.830Z,0
2018-02-11T01:21:37.366Z,0
2018-02-11T01:22:37.839Z,0
2018-02-11T01:23:37.601Z,0
2018-02-11T01:24:37.382Z,0
2018-02-11T01:25:37.388Z,0
2018-02-11T01:26:37.138Z,0
2018-02-11T01:27:37.156Z,0
2018-02-11T01:28:37.148Z,0
2018-02-11T01:29:37.914Z,0
2018-02-11T01:30:37.695Z,0
2018-02-11T01:31:37.182Z,0
2018-02-11T01:32:37.449Z,0
2018-02-11T01:33:37.953Z,0
2018-02-11T01:34:37.467Z,0
2018-02-11T01:35:37.244Z,0
2018-02-11T01:36:37.255Z,0
2018-02-11T01:37:37.780Z,0
2018-02-11T01:38:37.536Z,0
2018-02-11T01:39:37.808Z,0
2018-02-11T01:40:37.562Z,0
2018-02-11T01:41:38.084Z,0
2018-02-11T01:42:37.841Z,0
2018-02-11T01:43:37.872Z,0
2018-02-11T01:44:37.369Z,0
2018-02-11T01:45:37.628Z,0
2018-02-11T01:46:37.907Z,0
2018-02-11T01:47:37.398Z,0
2018-02-11T01:48:37.410Z,0
2018-02-11T01:49:37.175Z,0
2018-02-11T01:50:38.190Z,0
2018-02-11T01:51:37.956Z,0
2018-02-11T01:52:37.714Z,0
2018-02-11T01:53:37.488Z,0
2018-02-11T01:54:38.259Z,0
2018-02-11T01:55:37.504Z,0
2018-02-11T01:56:37.517Z,0
2018-02-11T01:57:38.337Z,0
2018-02-11T01:58:38.048Z,0
2018-02-11T01:59:37.813Z,0
2018-02-11T02:00:38.074Z,0
2018-02-11T02:01:37.827Z,0
2018-02-11T02:02:37.845Z,0
2018-02-11T02:03:38.367Z,0
2018-02-11T02:04:38.135Z,0
2018-02-11T02:05:37.631Z,0
2018-02-11T02:06:37.897Z,0
2018-02-11T02:07:37.912Z,0
2018-02-11T02:08:38.241Z,0
2018-02-11T02:09:38.438Z,0
2018-02-11T02:10:37.696Z,0
2018-02-11T02:11:37.461Z,0
2018-02-11T02:12:37.969Z,0
2018-02-11T02:13:38.249Z,0
2018-02-11T02:14:38.257Z,0
2018-02-11T02:15:38.003Z,0
2018-02-11T02:16:37.766Z,0
2018-02-11T02:17:38.283Z,0
2018-02-11T02:18:38.048Z,0
2018-02-11T02:19:37.818Z,0
2018-02-11T02:20:38.075Z,0
2018-02-11T02:21:38.088Z,0
2018-02-11T02:22:38.345Z,0
2018-02-11T02:23:38.167Z,0
2018-02-11T02:24:38.372Z,0
2018-02-11T02:25:38.636Z,0
2018-02-11T02:26:37.897Z,0
2018-02-11T02:27:38.405Z,0
2018-02-11T02:28:38.173Z,0
2018-02-11T02:29:38.435Z,0
2018-02-11T02:30:38.241Z,0
2018-02-11T02:31:38.204Z,0
2018-02-11T02:32:38.723Z,0
2018-02-11T02:33:38.745Z,0
2018-02-11T02:34:38.518Z,0
2018-02-11T02:35:38.263Z,0
2018-02-11T02:36:38.023Z,0
2018-02-11T02:37:38.811Z,0
2018-02-11T02:38:38.304Z,0
2018-02-11T02:39:38.833Z,0
2018-02-11T02:40:38.579Z,0
2018-02-11T02:41:38.360Z,0
2018-02-11T02:42:38.101Z,0
2018-02-11T02:43:38.357Z,0
2018-02-11T02:44:38.125Z,0
2018-02-11T02:45:38.139Z,0
2018-02-11T02:46:38.656Z,0
2018-02-11T02:47:38.681Z,0
2018-02-11T02:48:38.426Z,0
2018-02-11T02:49:38.695Z,0
2018-02-11T02:50:38.453Z,0
2018-02-11T02:51:38.216Z,0
2018-02-11T02:52:38.735Z,0
2018-02-11T02:53:38.492Z,0
2018-02-11T02:54:38.497Z,0
2018-02-11T02:55:38.767Z,0
2018-02-11T02:56:38.778Z,0
2018-02-11T02:57:38.829Z,0
2018-02-11T02:58:38.815Z,0
2018-02-11T02:59:38.582Z,0
2018-02-11T03:00:38.836Z,0
2018-02-11T03:01:38.341Z,0
2018-02-11T03:02:39.111Z,0
2018-02-11T03:03:38.618Z,0
2018-02-11T03:04:39.127Z,0
2018-02-11T03:05:38.894Z,0
2018-02-11T03:06:38.390Z,0
2018-02-11T03:07:38.912Z,0
2018-02-11T03:08:38.986Z,0
2018-02-11T03:09:38.433Z,0
2018-02-11T03:10:38.693Z,0
2018-02-11T03:11:38.713Z,0
2018-02-11T03:12:38.722Z,0
2018-02-11T03:13:39.239Z,0
2018-02-11T03:14:38.494Z,0
2018-02-11T03:15:39.312Z,0
2018-02-11T03:16:38.764Z,0
2018-02-11T03:17:39.272Z,0
2018-02-11T03:18:39.282Z,0
2018-02-11T03:19:38.794Z,0
2018-02-11T03:20:38.815Z,0
2018-02-11T03:21:38.817Z,0
2018-02-11T03:22:38.828Z,0
2018-02-11T03:23:38.603Z,0
2018-02-11T03:24:39.131Z,0
2018-02-11T03:25:39.182Z,0
2018-02-11T03:26:39.391Z,0
2018-02-11T03:27:38.917Z,0
2018-02-11T03:28:38.677Z,0
2018-02-11T03:29:39.454Z,0
2018-02-11T03:30:39.208Z,0
2018-02-11T03:31:39.473Z,0
2018-02-11T03:32:38.738Z,0
2018-02-11T03:33:38.726Z,0
2018-02-11T03:34:39.233Z,0
2018-02-11T03:35:39.503Z,0
2018-02-11T03:36:39.264Z,0
2018-02-11T03:37:39.029Z,0
2018-02-11T03:38:39.288Z,0
2018-02-11T03:39:39.307Z,0
2018-02-11T03:40:39.562Z,0
2018-02-11T03:41:39.327Z,0
2018-02-11T03:42:39.397Z,0
2018-02-11T03:43:39.351Z,0
2018-02-11T03:44:39.372Z,0
2018-02-11T03:45:39.129Z,0
2018-02-11T03:46:38.888Z,0
2018-02-11T03:47:39.417Z,0
2018-02-11T03:48:38.908Z,0
2018-02-11T03:49:39.179Z,0
2018-02-11T03:50:39.186Z,0
2018-02-11T03:51:39.447Z,0
2018-02-11T03:52:39.465Z,0
2018-02-11T03:53:39.742Z,0
2018-02-11T03:54:39.489Z,0
2018-02-11T03:55:38.992Z,0
2018-02-11T03:56:39.256Z,0
2018-02-11T03:57:39.037Z,0
2018-02-11T03:58:39.284Z,0
2018-02-11T03:59:39.552Z,0
2018-02-11T04:00:39.821Z,0
2018-02-11T04:01:38.818Z,0
2018-02-11T04:02:39.582Z,0
2018-02-11T04:03:39.856Z,0
2018-02-11T04:04:39.585Z,0
2018-02-11T04:05:39.126Z,0
2018-02-11T04:06:39.386Z,0
2018-02-11T04:07:39.652Z,0
2018-02-11T04:08:39.678Z,0
2018-02-11T04:09:39.423Z,0
2018-02-11T04:10:39.937Z,0
2018-02-11T04:11:39.498Z,0
2018-02-11T04:12:39.956Z,0
2018-02-11T04:13:39.730Z,0
2018-02-11T04:14:39.241Z,0
2018-02-11T04:15:39.494Z,0
2018-02-11T04:16:39.761Z,0
2018-02-11T04:17:39.271Z,0
2018-02-11T04:18:39.786Z,0
2018-02-11T04:19:40.051Z,0
2018-02-11T04:20:39.804Z,0
2018-02-11T04:21:39.066Z,0
2018-02-11T04:22:39.839Z,0
2018-02-11T04:23:40.095Z,0
2018-02-11T04:24:39.354Z,0
2018-02-11T04:25:39.368Z,0
2018-02-11T04:26:39.889Z,0
2018-02-11T04:27:39.668Z,0
2018-02-11T04:28:39.151Z,0
2018-02-11T04:29:39.924Z,0
2018-02-11T04:30:39.940Z,0
2018-02-11T04:31:39.950Z,0
2018-02-11T04:32:40.214Z,0
2018-02-11T04:33:39.969Z,0
2018-02-11T04:34:39.736Z,0
2018-02-11T04:35:39.747Z,0
2018-02-11T04:36:39.756Z,0
2018-02-11T04:37:39.767Z,0
2018-02-11T04:38:40.045Z,0
2018-02-11T04:39:39.792Z,0
2018-02-11T04:40:40.354Z,0
2018-02-11T04:41:40.092Z,0
2018-02-11T04:42:39.583Z,0
2018-02-11T04:43:40.115Z,0
2018-02-11T04:44:40.359Z,0
2018-02-11T04:45:39.863Z,0
2018-02-11T04:46:39.880Z,0
2018-02-11T04:47:40.157Z,0
2018-02-11T04:48:40.162Z,0
2018-02-11T04:49:40.182Z,0
2018-02-11T04:50:40.438Z,0
2018-02-11T04:51:40.446Z,0
2018-02-11T04:52:40.206Z,0
2018-02-11T04:53:39.966Z,0
2018-02-11T04:54:39.677Z,0
2018-02-11T04:55:39.742Z,0
2018-02-11T04:56:40.250Z,0
2018-02-11T04:57:40.268Z,0
2018-02-11T04:58:39.775Z,0
2018-02-11T04:59:39.547Z,0
2018-02-11T05:00:39.806Z,0
2018-02-11T05:01:40.574Z,0
2018-02-11T05:02:40.648Z,0
2018-02-11T05:03:40.094Z,0
2018-02-11T05:04:40.116Z,0
2018-02-11T05:05:40.363Z,0
2018-02-11T05:06:40.124Z,0
2018-02-11T05:07:40.401Z,0
2018-02-11T05:08:40.395Z,0
2018-02-11T05:09:40.410Z,0
2018-02-11T05:10:40.433Z,0
2018-02-11T05:11:40.745Z,0
2018-02-11T05:12:40.454Z,0
2018-02-11T05:13:40.219Z,0
2018-02-11T05:14:40.223Z,0
2018-02-11T05:15:40.771Z,0
2018-02-11T05:16:40.804Z,0
2018-02-11T05:17:40.255Z,0
2018-02-11T05:18:39.768Z,0
2018-02-11T05:19:40.278Z,0
2018-02-11T05:20:40.043Z,0
2018-02-11T05:21:40.052Z,0
2018-02-11T05:22:40.331Z,0
2018-02-11T05:23:40.141Z,0
2018-02-11T05:24:40.094Z,0
2018-02-11T05:25:40.604Z,0
2018-02-11T05:26:40.366Z,0
2018-02-11T05:27:40.384Z,0
2018-02-11T05:28:40.395Z,0
2018-02-11T05:29:40.406Z,0
2018-02-11T05:30:40.916Z,0
2018-02-11T05:31:40.678Z,0
2018-02-11T05:32:40.695Z,0
2018-02-11T05:33:40.454Z,0
2018-02-11T05:34:40.722Z,0
2018-02-11T05:35:41.010Z,0
2018-02-11T05:36:40.990Z,0
2018-02-11T05:37:41.007Z,0
2018-02-11T05:38:40.771Z,0
2018-02-11T05:39:40.268Z,0
2018-02-11T05:40:40.794Z,0
2018-02-11T05:41:40.549Z,0
2018-02-11T05:42:40.817Z,0
2018-02-11T05:43:40.822Z,0
2018-02-11T05:44:40.838Z,0
2018-02-11T05:45:40.340Z,0
2018-02-11T05:46:40.107Z,0
2018-02-11T05:47:40.366Z,0
2018-02-11T05:48:40.633Z,0
2018-02-11T05:49:40.646Z,0
2018-02-11T05:50:40.659Z,0
2018-02-11T05:51:40.663Z,0
2018-02-11T05:52:41.174Z,0
2018-02-11T05:53:40.938Z,0
2018-02-11T05:54:40.962Z,0
2018-02-11T05:55:40.470Z,0
2018-02-11T05:56:40.730Z,0
2018-02-11T05:57:40.743Z,0
2018-02-11T05:58:41.003Z,0
2018-02-11T05:59:41.314Z,0
2018-02-11T06:00:40.781Z,0
2018-02-11T06:01:40.548Z,0
2018-02-11T06:02:40.798Z,0
2018-02-11T06:03:41.076Z,0
2018-02-11T06:04:40.875Z,0
2018-02-11T06:05:40.833Z,0
2018-02-11T06:06:41.107Z,0
2018-02-11T06:07:40.608Z,0
2018-02-11T06:08:41.387Z,0
2018-02-11T06:09:41.136Z,0
2018-02-11T06:10:40.654Z,0
2018-02-11T06:11:40.657Z,0
2018-02-11T06:12:40.929Z,0
2018-02-11T06:13:40.934Z,0
2018-02-11T06:14:41.227Z,0
2018-02-11T06:15:41.206Z,0
2018-02-11T06:16:41.227Z,0
2018-02-11T06:17:41.232Z,0
2018-02-11T06:18:40.488Z,0
2018-02-11T06:19:41.257Z,0
2018-02-11T06:20:41.018Z,0
2018-02-11T06:21:41.027Z,5
2018-02-11T06:22:41.040Z,5
2018-02-11T06:23:41.120Z,5
2018-02-11T06:24:41.316Z,5
2018-02-11T06:25:41.577Z,5
2018-02-11T06:26:41.339Z,5
2018-02-11T06:27:41.605Z,5
2018-02-11T06:28:40.857Z,5
2018-02-11T06:29:40.873Z,10
2018-02-11T06:30:41.389Z,10
2018-02-11T06:31:41.163Z,10
2018-02-11T06:32:41.672Z,10
2018-02-11T06:33:40.672Z,10
2018-02-11T06:34:41.187Z,15
2018-02-11T06:35:41.197Z,15
2018-02-11T06:36:41.465Z,15
2018-02-11T06:37:40.970Z,15
2018-02-11T06:38:40.988Z,20
2018-02-11T06:39:41.501Z,20
2018-02-11T06:40:41.507Z,20
2018-02-11T06:41:41.265Z,25
2018-02-11T06:42:41.273Z,25
2018-02-11T06:43:41.538Z,25
2018-02-11T06:44:41.568Z,25
2018-02-11T06:45:41.813Z,30
2018-02-11T06:46:41.075Z,30
2018-02-11T06:47:41.846Z,30
2018-02-11T06:48:40.848Z,35
2018-02-11T06:49:41.107Z,35
2018-02-11T06:50:41.122Z,35
2018-02-11T06:51:42.009Z,40
2018-02-11T06:52:41.959Z,40
2018-02-11T06:53:41.445Z,40
2018-02-11T06:54:41.425Z,40
2018-02-11T06:55:41.427Z,45
2018-02-11T06:56:41.192Z,45
2018-02-11T06:57:41.464Z,45
2018-02-11T06:58:41.485Z,50
2018-02-11T06:59:41.749Z,50
2018-02-11T07:00:41.749Z,50
2018-02-11T07:01:42.040Z,50
2018-02-11T07:02:41.513Z,55
2018-02-11T07:03:41.530Z,55
2018-02-11T07:04:42.053Z,60
2018-02-11T07:05:41.814Z,60
2018-02-11T07:06:41.930Z,60
2018-02-11T07:07:56.251Z,65
2018-02-11T07:08:41.595Z,65
2018-02-11T07:09:41.357Z,65
2018-02-11T07:10:41.872Z,65
2018-02-11T07:11:41.376Z,65
2018-02-11T07:12:41.656Z,65
2018-02-11T07:13:41.416Z,65
2018-02-11T07:14:41.410Z,65
2018-02-11T07:15:41.426Z,65
2018-02-11T07:16:41.963Z,70
2018-02-11T07:17:41.703Z,75
2018-02-11T07:18:42.220Z,75
2018-02-11T07:19:42.248Z,80
2018-02-11T07:20:42.238Z,85
2018-02-11T07:21:42.250Z,85
2018-02-11T07:22:42.012Z,90
2018-02-11T07:23:41.782Z,95
2018-02-11T07:24:41.541Z,90
2018-02-11T07:25:42.329Z,95
2018-02-11T07:26:42.067Z,100
2018-02-11T07:27:42.367Z,100
2018-02-11T07:28:42.095Z,105
2018-02-11T07:29:42.366Z,105
2018-02-11T07:30:42.374Z,105
2018-02-11T07:31:42.377Z,110
2018-02-11T07:32:42.405Z,110
2018-02-11T07:33:41.645Z,105
2018-02-11T07:34:41.908Z,105
2018-02-11T07:35:41.933Z,120
2018-02-11T07:36:41.932Z,130
2018-02-11T07:37:41.969Z,140
2018-02-11T07:38:42.206Z,145
2018-02-11T07:39:41.710Z,155
2018-02-11T07:40:41.979Z,160
2018-02-11T07:41:41.998Z,175
2018-02-11T07:42:42.014Z,185
2018-02-11T07:43:42.031Z,190
2018-02-11T07:44:42.338Z,195
2018-02-11T07:45:42.102Z,200
2018-02-11T07:46:42.314Z,205
2018-02-11T07:47:42.338Z,210
2018-02-11T07:48:42.361Z,210
2018-02-11T07:49:42.095Z,215
2018-02-11T07:50:41.619Z,220
2018-02-11T07:51:41.877Z,220
2018-02-11T07:52:42.389Z,220
2018-02-11T07:53:42.412Z,225
2018-02-11T07:54:42.423Z,225
2018-02-11T07:55:42.434Z,225
2018-02-11T07:56:41.942Z,225
2018-02-11T07:57:42.760Z,225
2018-02-11T07:58:42.473Z,220
2018-02-11T07:59:42.485Z,220
2018-02-11T08:00:42.245Z,220
2018-02-11T08:01:42.261Z,215
2018-02-11T08:02:42.274Z,210
2018-02-11T08:03:42.300Z,200
2018-02-11T08:04:42.544Z,190
2018-02-11T08:05:42.312Z,190
2018-02-11T08:06:42.076Z,190
2018-02-11T08:07:42.096Z,190
2018-02-11T08:08:42.655Z,190
2018-02-11T08:09:42.878Z,185
2018-02-11T08:10:42.404Z,185
2018-02-11T08:11:42.649Z,185
2018-02-11T08:12:42.911Z,180
2018-02-11T08:13:42.426Z,175
2018-02-11T08:14:42.198Z,180
2018-02-11T08:15:42.947Z,185
2018-02-11T08:16:42.965Z,190
2018-02-11T08:17:42.738Z,190
2018-02-11T08:18:42.519Z,185
2018-02-11T08:19:42.514Z,185
2018-02-11T08:20:42.765Z,190
2018-02-11T08:21:42.276Z,195
2018-02-11T08:22:42.800Z,195
2018-02-11T08:23:42.576Z,200
2018-02-11T08:24:42.842Z,205
2018-02-11T08:25:42.663Z,210
2018-02-11T08:26:42.349Z,215
2018-02-11T08:27:42.863Z,225
2018-02-11T08:28:42.880Z,245
2018-02-11T08:29:42.641Z,250
2018-02-11T08:30:42.659Z,245
2018-02-11T08:31:42.928Z,240
2018-02-11T08:32:43.194Z,235
2018-02-11T08:33:42.706Z,235
2018-02-11T08:34:42.208Z,225
2018-02-11T08:35:43.230Z,220
2018-02-11T08:36:42.995Z,210
2018-02-11T08:37:43.015Z,205
2018-02-11T08:38:42.765Z,210
2018-02-11T08:39:42.830Z,205
2018-02-11T08:40:42.795Z,200
2018-02-11T08:41:43.128Z,200
2018-02-11T08:42:42.825Z,200
2018-02-11T08:43:43.343Z,205
2018-02-11T08:44:42.602Z,210
2018-02-11T08:45:42.887Z,210
2018-02-11T08:46:42.887Z,205
2018-02-11T08:47:42.903Z,205
2018-02-11T08:48:43.162Z,205
2018-02-11T08:49:43.192Z,205
2018-02-11T08:50:43.193Z,210
2018-02-11T08:51:43.218Z,210
2018-02-11T08:52:42.971Z,210
2018-02-11T08:53:42.990Z,210
2018-02-11T08:54:43.611Z,215
2018-02-11T08:55:43.254Z,215
2018-02-11T08:56:43.029Z,210
2018-02-11T08:57:43.298Z,210
2018-02-11T08:58:43.309Z,220
2018-02-11T08:59:43.575Z,230
2018-02-11T09:00:43.608Z,235
2018-02-11T09:01:43.374Z,240
2018-02-11T09:02:43.364Z,245
2018-02-11T09:03:43.396Z,255
2018-02-11T09:04:42.890Z,270
2018-02-11T09:05:43.661Z,275
2018-02-11T09:06:43.182Z,270
2018-02-11T09:07:43.454Z,265
2018-02-11T09:08:42.954Z,255
2018-02-11T09:09:43.238Z,230
2018-02-11T09:10:43.500Z,210
2018-02-11T09:11:43.244Z,195
2018-02-11T09:12:43.260Z,180
2018-02-11T09:13:43.280Z,170
2018-02-11T09:14:43.793Z,160
2018-02-11T09:15:43.810Z,155
2018-02-11T09:16:43.824Z,155
2018-02-11T09:17:43.582Z,160
2018-02-11T09:18:43.879Z,165
2018-02-11T09:19:43.623Z,180
2018-02-11T09:20:43.629Z,200
2018-02-11T09:21:43.899Z,225
2018-02-11T09:22:43.437Z,250
2018-02-11T09:23:43.930Z,280
2018-02-11T09:24:43.434Z,305
2018-02-11T09:25:43.722Z,340
2018-02-11T09:26:43.484Z,345
2018-02-11T09:27:43.490Z,335
2018-02-11T09:28:43.755Z,320
2018-02-11T09:29:43.772Z,300
2018-02-11T09:30:43.539Z,290
2018-02-11T09:31:44.045Z,290
2018-02-11T09:32:43.597Z,295
2018-02-11T09:33:44.074Z,305
2018-02-11T09:34:43.841Z,315
2018-02-11T09:35:43.858Z,330
2018-02-11T09:36:43.630Z,350
2018-02-11T09:37:43.382Z,360
2018-02-11T09:38:43.663Z,355
2018-02-11T09:39:43.955Z,350
2018-02-11T09:40:43.427Z,340
2018-02-11T09:41:43.951Z,350
2018-02-11T09:42:43.461Z,370
2018-02-11T09:43:43.473Z,345
2018-02-11T09:44:43.745Z,335
2018-02-11T09:45:43.777Z,330
2018-02-11T09:46:43.517Z,340
2018-02-11T09:47:43.795Z,370
2018-02-11T09:48:43.803Z,415
2018-02-11T09:49:43.581Z,445
2018-02-11T09:50:59.014Z,465
2018-02-11T09:51:43.599Z,415
2018-02-11T09:52:44.126Z,395
2018-02-11T09:53:44.136Z,410
2018-02-11T09:54:44.153Z,425
2018-02-11T09:55:44.416Z,450
2018-02-11T09:56:44.430Z,480
2018-02-11T09:57:43.954Z,485
2018-02-11T09:58:44.216Z,540
2018-02-11T09:59:43.983Z,560
2018-02-11T10:00:44.498Z,510
2018-02-11T10:01:44.007Z,490
2018-02-11T10:02:44.292Z,485
2018-02-11T10:03:44.549Z,500
2018-02-11T10:04:44.377Z,550
2018-02-11T10:05:44.577Z,545
2018-02-11T10:06:43.838Z,585
2018-02-11T10:07:44.359Z,610
2018-02-11T10:08:44.128Z,605
2018-02-11T10:09:44.156Z,560
2018-02-11T10:10:43.907Z,515
2018-02-11T10:11:44.179Z,470
2018-02-11T10:12:44.204Z,420
2018-02-11T10:13:44.476Z,380
2018-02-11T10:14:44.000Z,360
2018-02-11T10:15:44.502Z,345
2018-02-11T10:16:44.015Z,340
2018-02-11T10:17:44.291Z,340
2018-02-11T10:18:44.300Z,345
2018-02-11T10:19:44.827Z,335
2018-02-11T10:20:44.842Z,315
2018-02-11T10:21:44.611Z,300
2018-02-11T10:22:44.633Z,285
2018-02-11T10:23:44.135Z,285
2018-02-11T10:24:44.429Z,280
2018-02-11T10:25:44.931Z,265
2018-02-11T10:26:44.701Z,250
2018-02-11T10:27:44.461Z,245
2018-02-11T10:28:44.742Z,245
2018-02-11T10:29:44.754Z,255
2018-02-11T10:30:44.525Z,270
2018-02-11T10:31:44.790Z,275
2018-02-11T10:32:44.039Z,285
2018-02-11T10:33:44.311Z,300
2018-02-11T10:34:45.081Z,325
2018-02-11T10:35:44.841Z,355
2018-02-11T10:36:44.878Z,375
2018-02-11T10:37:45.137Z,385
2018-02-11T10:38:44.639Z,385
2018-02-11T10:39:45.164Z,390
2018-02-11T10:40:44.926Z,405
2018-02-11T10:41:44.697Z,410
2018-02-11T10:42:45.280Z,400
2018-02-11T10:43:44.733Z,370
2018-02-11T10:44:44.735Z,330
2018-02-11T10:45:45.308Z,295
2018-02-11T10:46:44.524Z,265
2018-02-11T10:47:44.794Z,255
2018-02-11T10:48:45.073Z,275
2018-02-11T10:49:45.090Z,295
2018-02-11T10:50:45.120Z,325
2018-02-11T10:51:44.862Z,295
2018-02-11T10:52:45.135Z,250
2018-02-11T10:53:45.149Z,245
2018-02-11T10:54:44.931Z,245
2018-02-11T10:55:45.175Z,245
2018-02-11T10:56:45.242Z,245
2018-02-11T10:57:45.215Z,240
2018-02-11T10:58:45.514Z,240
2018-02-11T10:59:45.259Z,260
2018-02-11T11:00:45.273Z,290
2018-02-11T11:01:45.524Z,320
2018-02-11T11:02:45.546Z,340
2018-02-11T11:03:45.320Z,370
2018-02-11T11:04:45.084Z,385
2018-02-11T11:05:45.611Z,380
2018-02-11T11:06:45.424Z,360
2018-02-11T11:07:45.384Z,330
2018-02-11T11:08:45.174Z,305
2018-02-11T11:09:45.181Z,285
2018-02-11T11:10:45.182Z,280
2018-02-11T11:11:45.197Z,280
2018-02-11T11:12:45.230Z,275
2018-02-11T11:13:45.241Z,275
2018-02-11T11:14:44.995Z,270
2018-02-11T11:15:45.520Z,270
2018-02-11T11:16:45.285Z,265
2018-02-11T11:17:45.557Z,265
2018-02-11T11:18:45.837Z,260
2018-02-11T11:19:45.582Z,245
2018-02-11T11:20:45.876Z,235
2018-02-11T11:21:45.730Z,235
2018-02-11T11:22:45.137Z,235
2018-02-11T11:23:45.164Z,240
2018-02-11T11:24:45.173Z,235
2018-02-11T11:25:45.978Z,230
2018-02-11T11:26:45.204Z,210
2018-02-11T11:27:45.785Z,205
2018-02-11T11:28:45.740Z,205
2018-02-11T11:29:45.507Z,220
2018-02-11T11:30:45.523Z,240
2018-02-11T11:31:45.569Z,260
2018-02-11T11:32:45.808Z,270
2018-02-11T11:33:45.838Z,270
2018-02-11T11:34:45.346Z,245
2018-02-11T11:35:45.614Z,210
2018-02-11T11:36:45.141Z,175
2018-02-11T11:37:45.400Z,155
2018-02-11T11:38:45.771Z,145
2018-02-11T11:39:45.440Z,155
2018-02-11T11:40:45.697Z,155
2018-02-11T11:41:46.214Z,160
2018-02-11T11:42:45.985Z,165
2018-02-11T11:43:45.744Z,175
2018-02-11T11:44:46.067Z,175
2018-02-11T11:45:46.031Z,180
2018-02-11T11:46:45.794Z,175
2018-02-11T11:47:46.059Z,170
2018-02-11T11:48:45.827Z,165
2018-02-11T11:49:45.587Z,175
2018-02-11T11:50:46.098Z,180
2018-02-11T11:51:45.607Z,185
2018-02-11T11:52:45.381Z,190
2018-02-11T11:53:45.668Z,200
2018-02-11T11:54:45.920Z,220
2018-02-11T11:55:45.929Z,235
2018-02-11T11:56:46.451Z,255
2018-02-11T11:57:45.977Z,280
2018-02-11T11:58:45.733Z,290
2018-02-11T11:59:46.244Z,285
2018-02-11T12:00:45.754Z,285
2018-02-11T12:01:46.281Z,290
2018-02-11T12:02:46.045Z,290
2018-02-11T12:03:46.065Z,290
2018-02-11T12:04:46.582Z,315
2018-02-11T12:05:46.107Z,310
2018-02-11T12:06:46.606Z,305
2018-02-11T12:07:45.871Z,315
2018-02-11T12:08:46.137Z,320
2018-02-11T12:09:46.409Z,295
2018-02-11T12:10:46.416Z,315
2018-02-11T12:11:46.186Z,330
2018-02-11T12:12:46.453Z,360
2018-02-11T12:13:45.963Z,430
2018-02-11T12:14:46.737Z,460
2018-02-11T12:15:45.994Z,450
2018-02-11T12:16:46.268Z,395
2018-02-11T12:18:00.966Z,340
2018-02-11T12:18:46.299Z,335
2018-02-11T12:19:46.524Z,350
2018-02-11T12:20:46.480Z,375
2018-02-11T12:21:46.078Z,405
2018-02-11T12:22:46.862Z,415
2018-02-11T12:23:46.623Z,410
2018-02-11T12:24:46.649Z,410
2018-02-11T12:25:46.411Z,390
2018-02-11T12:26:46.929Z,345
2018-02-11T12:27:46.720Z,330
2018-02-11T12:28:46.205Z,310
2018-02-11T12:29:46.736Z,310
2018-02-11T12:30:46.255Z,300
2018-02-11T12:31:46.768Z,275
2018-02-11T12:32:46.272Z,220
2018-02-11T12:33:46.543Z,220
2018-02-11T12:34:46.833Z,205
2018-02-11T12:35:46.574Z,190
2018-02-11T12:36:47.117Z,210
2018-02-11T12:37:46.855Z,210
2018-02-11T12:38:46.622Z,200
2018-02-11T12:39:46.392Z,195
2018-02-11T12:40:46.664Z,190
2018-02-11T12:41:46.943Z,190
2018-02-11T12:42:46.944Z,185
2018-02-11T12:43:46.704Z,190
2018-02-11T12:44:46.973Z,195
2018-02-11T12:45:47.055Z,200
2018-02-11T12:46:47.260Z,205
2018-02-11T12:47:46.776Z,210
2018-02-11T12:48:46.542Z,225
2018-02-11T12:49:46.993Z,225
2018-02-11T12:50:46.317Z,235
2018-02-11T12:51:46.590Z,245
2018-02-11T12:52:47.361Z,245
2018-02-11T12:53:47.120Z,250
2018-02-11T12:54:46.889Z,270
2018-02-11T12:55:47.161Z,295
2018-02-11T12:56:47.423Z,310
2018-02-11T12:57:47.451Z,310
2018-02-11T12:58:47.202Z,300
2018-02-11T12:59:47.473Z,315
2018-02-11T13:00:46.743Z,350
2018-02-11T13:01:46.919Z,380
2018-02-11T13:02:46.958Z,390
2018-02-11T13:03:46.793Z,340
2018-02-11T13:04:47.311Z,285
2018-02-11T13:05:47.316Z,270
2018-02-11T13:06:47.082Z,270
2018-02-11T13:07:47.600Z,260
2018-02-11T13:08:47.115Z,265
2018-02-11T13:09:47.127Z,280
2018-02-11T13:10:47.393Z,305
2018-02-11T13:11:47.163Z,280
2018-02-11T13:12:46.946Z,230
2018-02-11T13:13:47.449Z,205
2018-02-11T13:14:47.716Z,225
2018-02-11T13:15:47.222Z,200
2018-02-11T13:16:46.985Z,170
2018-02-11T13:17:47.008Z,185
2018-02-11T13:18:47.276Z,185
2018-02-11T13:19:47.287Z,160
2018-02-11T13:21:02.226Z,175
2018-02-11T13:21:47.573Z,170
2018-02-11T13:22:47.589Z,170
2018-02-11T13:23:47.111Z,140
2018-02-11T13:24:47.628Z,125
2018-02-11T13:25:47.400Z,145
2018-02-11T13:26:47.404Z,150
2018-02-11T13:27:47.945Z,145
2018-02-11T13:28:47.454Z,150
2018-02-11T13:29:47.451Z,140
2018-02-11T13:30:47.470Z,120
2018-02-11T13:31:47.506Z,130
2018-02-11T13:32:47.494Z,130
2018-02-11T13:33:47.270Z,130
2018-02-11T13:34:47.272Z,125
2018-02-11T13:35:47.549Z,125
2018-02-11T13:36:47.821Z,140
2018-02-11T13:37:47.582Z,150
2018-02-11T13:38:47.370Z,150
2018-02-11T13:39:47.863Z,140
2018-02-11T13:40:47.876Z,130
2018-02-11T13:41:47.640Z,120
2018-02-11T13:42:47.667Z,115
2018-02-11T13:43:47.683Z,115
2018-02-11T13:44:47.939Z,120
2018-02-11T13:45:47.713Z,130
2018-02-11T13:46:48.218Z,135
2018-02-11T13:47:47.857Z,145
2018-02-11T13:48:47.745Z,130
2018-02-11T13:49:47.762Z,130
2018-02-11T13:50:47.781Z,130
2018-02-11T13:51:48.043Z,110
2018-02-11T13:52:48.059Z,105
2018-02-11T13:53:47.824Z,95
2018-02-11T13:54:47.585Z,100
2018-02-11T13:55:47.854Z,95
2018-02-11T13:56:48.116Z,100
2018-02-11T13:57:47.892Z,100
2018-02-11T13:58:47.895Z,90
2018-02-11T13:59:47.970Z,90
2018-02-11T14:00:47.937Z,95
2018-02-11T14:01:48.458Z,100
2018-02-11T14:02:48.482Z,105
2018-02-11T14:03:48.222Z,90
2018-02-11T14:04:48.242Z,90
2018-02-11T14:05:48.012Z,100
2018-02-11T14:06:48.023Z,115
2018-02-11T14:07:48.585Z,125
2018-02-11T14:08:48.289Z,115
2018-02-11T14:09:48.074Z,100
2018-02-11T14:10:48.351Z,85
2018-02-11T14:11:48.618Z,80
2018-02-11T14:12:48.403Z,80
2018-02-11T14:13:48.427Z,95
2018-02-11T14:14:48.142Z,105
2018-02-11T14:15:48.414Z,95